createdAt,value
2019-01-05T00:01:15.677Z,8.57
2019-01-05T00:03:45.662Z,7.47
2019-01-05T00:06:14.707Z,6.30
2019-01-05T00:08:44.575Z,7.37
2019-01-05T00:11:14.421Z,6.43
2019-01-05T00:13:46.419Z,7.27
2019-01-05T00:16:15.472Z,7.30
2019-01-05T00:18:50.296Z,6.90
2019-01-05T00:21:25.205Z,5.97
2019-01-05T00:23:59.838Z,6.20
2019-01-05T00:26:29.679Z,5.33
2019-01-05T00:29:00.564Z,6.03
2019-01-05T00:31:30.428Z,5.73
2019-01-05T00:33:59.475Z,4.93
2019-01-05T00:36:29.636Z,5.80
2019-01-05T00:39:00.615Z,6.03
2019-01-05T00:41:30.596Z,6.00
2019-01-05T00:44:00.462Z,5.20
2019-01-05T00:46:29.487Z,5.20
2019-01-05T00:49:01.405Z,5.20
2019-01-05T00:51:36.452Z,6.33
2019-01-05T00:54:05.546Z,6.10
2019-01-05T00:56:35.537Z,6.00
2019-01-05T01:01:54.551Z,4.97
2019-01-05T01:04:26.594Z,5.17
2019-01-05T01:06:56.457Z,5.53
2019-01-05T01:09:25.497Z,5.97
2019-01-05T01:11:54.602Z,7.23
2019-01-05T01:14:23.644Z,7.87
2019-01-05T01:16:55.610Z,8.53
2019-01-05T01:19:26.636Z,8.87
2019-01-05T01:21:57.562Z,8.03
2019-01-05T01:27:15.835Z,6.90
2019-01-05T01:29:44.884Z,6.67
2019-01-05T01:32:19.963Z,5.47
2019-01-05T01:34:54.619Z,6.27
2019-01-05T01:37:23.689Z,6.87
2019-01-05T01:39:53.546Z,6.87
2019-01-05T01:42:23.511Z,6.27
2019-01-05T01:44:52.604Z,6.07
2019-01-05T01:47:24.384Z,7.67
2019-01-05T01:49:59.083Z,9.30
2019-01-05T01:52:28.135Z,7.63
2019-01-05T01:55:00.979Z,7.37
2019-01-05T01:57:31.846Z,5.27
2019-01-05T02:00:01.990Z,4.50
2019-01-05T02:02:35.896Z,4.40
2019-01-05T02:05:06.884Z,3.43
2019-01-05T02:07:36.132Z,4.17
2019-01-05T02:10:08.027Z,4.60
2019-01-05T02:12:41.945Z,7.70
2019-01-05T02:15:12.087Z,12.30
2019-01-05T02:17:42.917Z,6.37
2019-01-05T02:20:23.237Z,4.07
2019-01-05T02:22:59.711Z,3.30
2019-01-05T02:25:34.493Z,2.70
2019-01-05T02:28:17.856Z,2.83
2019-01-05T02:30:48.074Z,2.60
2019-01-05T02:33:21.980Z,5.23
2019-01-05T02:36:00.412Z,5.93
2019-01-05T02:38:51.469Z,3.70
2019-01-05T02:41:28.028Z,3.00
2019-01-05T02:44:07.557Z,2.50
2019-01-05T02:46:48.494Z,2.57
2019-01-05T02:49:36.335Z,1.83
2019-01-05T02:52:06.213Z,1.40
2019-01-05T02:57:23.813Z,2.20
2019-01-05T03:02:49.010Z,2.17
2019-01-05T03:08:21.821Z,2.30
2019-01-05T03:11:02.277Z,1.50
2019-01-05T03:13:32.820Z,1.97
2019-01-05T03:16:06.590Z,1.70
2019-01-05T03:18:55.786Z,2.10
2019-01-05T03:21:37.485Z,2.10
2019-01-05T03:27:09.698Z,1.80
2019-01-05T03:29:44.362Z,1.63
2019-01-05T03:32:14.230Z,1.97
2019-01-05T03:34:53.218Z,2.20
2019-01-05T03:37:30.019Z,1.70
2019-01-05T03:42:52.933Z,2.33
2019-01-05T03:45:32.555Z,1.80
2019-01-05T03:50:53.174Z,2.40
2019-01-05T03:53:29.380Z,1.80
2019-01-05T03:56:08.700Z,1.80
2019-01-05T03:58:43.427Z,2.40
2019-01-05T04:01:17.102Z,1.87
2019-01-05T04:03:48.956Z,1.70
2019-01-05T04:06:25.673Z,1.80
2019-01-05T04:08:56.511Z,1.70
2019-01-05T04:11:42.242Z,1.40
2019-01-05T04:14:18.932Z,1.50
2019-01-05T04:17:10.317Z,1.77
2019-01-05T04:19:51.855Z,1.10
2019-01-05T04:22:28.823Z,1.80
2019-01-05T04:25:06.445Z,1.33
2019-01-05T04:27:48.216Z,1.20
2019-01-05T04:30:22.711Z,1.37
2019-01-05T04:35:48.509Z,1.23
2019-01-05T04:38:33.347Z,1.57
2019-01-05T04:43:51.031Z,2.20
2019-01-05T04:46:27.514Z,1.80
2019-01-05T04:49:02.309Z,2.00
2019-01-05T04:57:10.507Z,2.20
2019-01-05T04:59:44.513Z,3.20
2019-01-05T05:02:20.192Z,2.20
2019-01-05T05:04:50.069Z,1.57
2019-01-05T05:07:26.543Z,2.53
2019-01-05T05:10:06.482Z,2.93
2019-01-05T05:12:48.044Z,3.87
2019-01-05T05:23:37.755Z,2.37
2019-01-05T05:26:16.679Z,2.20
2019-01-05T05:28:53.191Z,2.10
2019-01-05T05:31:33.535Z,2.63
2019-01-05T05:40:18.941Z,1.80
2019-01-05T05:43:06.581Z,1.90
2019-01-05T05:45:53.325Z,2.30
2019-01-05T05:48:30.543Z,2.37
2019-01-05T05:51:10.182Z,2.80
2019-01-05T05:53:46.983Z,3.47
2019-01-05T05:56:22.864Z,3.30
2019-01-05T05:58:57.934Z,3.00
2019-01-05T06:01:35.282Z,3.07
2019-01-05T06:04:12.106Z,2.43
2019-01-05T06:06:46.743Z,2.87
2019-01-05T06:09:32.107Z,2.90
2019-01-05T06:12:19.772Z,2.90
2019-01-05T06:14:52.571Z,2.33
2019-01-05T06:17:32.043Z,2.20
2019-01-05T06:20:01.917Z,2.87
2019-01-05T06:22:37.491Z,2.13
2019-01-05T06:28:04.154Z,4.37
2019-01-05T06:30:39.130Z,3.80
2019-01-05T06:33:09.828Z,3.70
2019-01-05T06:35:52.442Z,3.27
2019-01-05T06:38:33.829Z,3.33
2019-01-05T06:41:16.128Z,4.10
2019-01-05T06:43:49.720Z,7.57
2019-01-05T06:46:37.669Z,3.20
2019-01-05T06:49:23.045Z,2.80
2019-01-05T06:52:08.727Z,2.77
2019-01-05T06:54:52.915Z,3.23
2019-01-05T06:57:29.296Z,3.27
2019-01-05T07:00:15.197Z,2.90
2019-01-05T07:02:56.123Z,2.53
2019-01-05T07:05:33.883Z,3.20
2019-01-05T07:10:56.440Z,3.70
2019-01-05T07:16:14.978Z,3.80
2019-01-05T07:21:35.853Z,3.73
2019-01-05T07:24:17.620Z,4.00
2019-01-05T07:27:01.324Z,4.50
2019-01-05T07:29:45.831Z,4.97
2019-01-05T07:35:17.755Z,5.27
2019-01-05T07:37:54.199Z,6.37
2019-01-05T07:40:35.717Z,7.53
2019-01-05T07:43:10.496Z,7.67
2019-01-05T07:45:46.845Z,7.90
2019-01-05T07:48:26.548Z,6.30
2019-01-05T07:51:11.318Z,8.03
2019-01-05T07:53:53.011Z,7.37
2019-01-05T07:59:13.332Z,12.50
2019-01-05T08:02:02.185Z,10.27
2019-01-05T08:04:41.489Z,13.53
2019-01-05T08:07:23.231Z,11.97
2019-01-05T08:10:09.324Z,6.23
2019-01-05T08:12:56.884Z,14.27
2019-01-05T08:15:37.538Z,17.23
2019-01-05T08:18:20.132Z,9.57
2019-01-05T08:21:06.532Z,10.13
2019-01-05T08:23:55.445Z,8.33
2019-01-05T08:26:31.893Z,9.57
2019-01-05T08:32:00.326Z,6.23
2019-01-05T08:34:44.889Z,5.03
2019-01-05T08:37:25.493Z,4.60
2019-01-05T08:43:02.490Z,4.93
2019-01-05T08:45:43.401Z,8.40
2019-01-05T08:48:20.017Z,10.57
2019-01-05T08:51:09.195Z,9.70
2019-01-05T08:53:46.974Z,8.03
2019-01-05T08:56:30.737Z,3.20
2019-01-05T08:59:13.985Z,6.83
2019-01-05T09:01:54.498Z,6.37
2019-01-05T09:07:14.665Z,6.47
2019-01-05T09:09:50.940Z,6.63
2019-01-05T09:12:34.202Z,8.23
2019-01-05T09:15:09.039Z,7.70
2019-01-05T09:17:44.844Z,7.10
2019-01-05T09:20:22.443Z,19.33
2019-01-05T09:23:00.257Z,9.87
2019-01-05T09:25:36.230Z,65.33
2019-01-05T09:28:17.812Z,6.00
2019-01-05T09:33:46.156Z,6.03
2019-01-05T09:36:23.414Z,6.23
2019-01-05T09:38:57.169Z,7.67
2019-01-05T09:41:40.624Z,3.73
2019-01-05T09:44:17.965Z,4.87
2019-01-05T09:46:51.883Z,6.53
2019-01-05T09:49:35.673Z,4.97
2019-01-05T09:52:16.419Z,6.20
2019-01-05T09:54:53.984Z,4.20
2019-01-05T09:57:28.881Z,6.20
2019-01-05T10:00:05.561Z,4.30
2019-01-05T10:02:36.460Z,7.37
2019-01-05T10:05:25.187Z,14.97
2019-01-05T10:07:59.955Z,14.40
2019-01-05T10:10:38.182Z,24.33
2019-01-05T10:13:19.641Z,7.83
2019-01-05T10:15:54.628Z,5.37
2019-01-05T10:18:28.545Z,5.50
2019-01-05T10:26:47.354Z,7.83
2019-01-05T10:29:25.009Z,4.17
2019-01-05T10:32:12.874Z,5.03
2019-01-05T10:34:44.444Z,5.10
2019-01-05T10:37:22.867Z,7.90
2019-01-05T10:42:41.168Z,5.97
2019-01-05T10:45:11.142Z,6.20
2019-01-05T10:47:46.123Z,7.77
2019-01-05T10:50:22.878Z,5.00
2019-01-05T10:53:03.382Z,8.87
2019-01-05T10:55:44.058Z,7.03
2019-01-05T10:58:26.455Z,8.37
2019-01-05T11:01:02.249Z,10.77
2019-01-05T11:03:39.166Z,10.20
2019-01-05T11:06:13.933Z,8.43
2019-01-05T11:08:43.010Z,3.90
2019-01-05T11:11:20.164Z,24.63
2019-01-05T11:14:06.938Z,15.30
2019-01-05T11:16:45.928Z,4.53
2019-01-05T11:19:16.088Z,5.53
2019-01-05T11:21:51.769Z,4.57
2019-01-05T11:24:24.311Z,4.13
2019-01-05T11:26:59.225Z,4.30
2019-01-05T11:29:49.745Z,6.27
2019-01-05T11:32:28.188Z,4.27
2019-01-05T11:35:05.781Z,4.63
2019-01-05T11:37:46.332Z,4.43
2019-01-05T11:43:15.265Z,4.43
2019-01-05T11:45:48.909Z,5.43
2019-01-05T11:48:26.721Z,5.40
2019-01-05T11:53:56.908Z,3.97
2019-01-05T11:56:37.270Z,3.37
2019-01-05T12:04:34.644Z,8.83
2019-01-05T12:07:15.272Z,3.30
2019-01-05T12:09:51.170Z,5.60
2019-01-05T12:12:26.079Z,3.00
2019-01-05T12:14:56.603Z,3.20
2019-01-05T12:17:34.920Z,5.27
2019-01-05T12:20:05.720Z,4.63
2019-01-05T12:22:43.400Z,5.53
2019-01-05T12:25:17.876Z,2.90
2019-01-05T12:27:48.446Z,2.53
2019-01-05T12:30:27.130Z,3.30
2019-01-05T12:33:15.788Z,3.13
2019-01-05T12:35:50.725Z,3.63
2019-01-05T12:38:25.791Z,4.30
2019-01-05T12:40:58.661Z,3.30
2019-01-05T12:46:20.525Z,4.50
2019-01-05T12:51:42.990Z,5.07
2019-01-05T12:54:19.720Z,2.97
2019-01-05T12:56:59.205Z,5.83
2019-01-05T12:59:46.454Z,4.90
2019-01-05T13:02:31.284Z,7.53
2019-01-05T13:10:53.155Z,9.67
2019-01-05T13:13:28.081Z,5.10
2019-01-05T13:16:12.676Z,4.43
2019-01-05T13:18:54.540Z,4.67
2019-01-05T13:21:35.053Z,3.20
2019-01-05T13:26:53.676Z,6.03
2019-01-05T13:32:17.001Z,7.37
2019-01-05T13:34:51.555Z,6.67
2019-01-05T13:40:13.054Z,5.27
2019-01-05T13:42:53.664Z,3.00
2019-01-05T13:45:40.499Z,10.27
2019-01-05T13:48:26.685Z,19.40
2019-01-05T13:51:07.252Z,25.27
2019-01-05T13:53:40.124Z,7.27
2019-01-05T13:56:10.092Z,6.97
2019-01-05T13:58:44.140Z,7.60
2019-01-05T14:01:18.828Z,11.60
2019-01-05T14:03:53.615Z,8.30
2019-01-05T14:06:24.467Z,7.07
2019-01-05T14:08:59.165Z,5.50
2019-01-05T14:11:28.211Z,6.37
2019-01-05T14:13:58.041Z,5.90
2019-01-05T14:16:32.775Z,7.73
2019-01-05T14:19:07.689Z,11.03
2019-01-05T14:21:42.764Z,9.33
2019-01-05T14:24:17.317Z,6.50
2019-01-05T14:26:47.318Z,5.33
2019-01-05T14:29:16.345Z,4.17
2019-01-05T14:31:48.666Z,9.27
2019-01-05T14:34:21.680Z,13.40
2019-01-05T14:36:51.541Z,35.57
2019-01-05T14:39:26.413Z,10.90
2019-01-05T14:42:00.477Z,6.97
2019-01-05T14:44:33.447Z,5.37
2019-01-05T14:47:02.565Z,9.30
2019-01-05T14:49:37.113Z,9.20
2019-01-05T14:52:08.147Z,13.13
2019-01-05T14:54:38.123Z,7.53
2019-01-05T14:57:07.173Z,8.67
2019-01-05T14:59:41.931Z,9.57
2019-01-05T15:02:13.909Z,7.97
2019-01-05T15:04:43.902Z,34.43
2019-01-05T15:07:16.958Z,44.37
2019-01-05T15:09:47.978Z,138.03
2019-01-05T15:12:22.063Z,99.77
2019-01-05T15:14:53.060Z,43.03
2019-01-05T15:17:27.755Z,104.97
2019-01-05T15:19:56.861Z,20.00
2019-01-05T15:22:26.768Z,36.67
2019-01-05T15:25:01.403Z,11.37
2019-01-05T15:27:36.098Z,9.93
2019-01-05T15:30:06.978Z,23.97
2019-01-05T15:32:37.858Z,24.37
2019-01-05T15:35:06.918Z,11.70
2019-01-05T15:37:36.003Z,5.87
2019-01-05T15:40:10.005Z,8.70
2019-01-05T15:42:39.995Z,9.97
2019-01-05T15:45:14.681Z,8.33
2019-01-05T15:47:43.759Z,12.07
2019-01-05T15:50:12.805Z,11.30
2019-01-05T15:52:43.678Z,18.07
2019-01-05T15:55:14.600Z,12.20
2019-01-05T15:57:43.659Z,19.40
2019-01-05T16:00:18.210Z,15.53
2019-01-05T16:02:47.246Z,11.67
2019-01-05T16:05:16.289Z,22.47
2019-01-05T16:07:48.196Z,17.27
2019-01-05T16:10:18.058Z,15.77
2019-01-05T16:15:36.063Z,7.23
2019-01-05T16:18:09.943Z,21.33
2019-01-05T16:20:44.638Z,26.87
2019-01-05T16:23:13.721Z,18.70
2019-01-05T16:25:44.695Z,7.70
2019-01-05T16:28:13.742Z,9.73
2019-01-05T16:30:48.392Z,19.37
2019-01-05T16:33:26.511Z,37.27
2019-01-05T16:35:55.581Z,15.60
2019-01-05T16:38:24.623Z,24.53
2019-01-05T16:40:54.601Z,32.07
2019-01-05T16:43:26.629Z,46.93
2019-01-05T16:45:57.600Z,22.83
2019-01-05T16:48:26.685Z,24.27
2019-01-05T16:50:55.787Z,29.90
2019-01-05T16:53:32.503Z,28.83
2019-01-05T16:56:07.070Z,23.50
2019-01-05T16:58:37.051Z,24.03
2019-01-05T17:01:06.101Z,13.10
2019-01-05T17:03:35.990Z,11.93
2019-01-05T17:06:05.881Z,12.37
2019-01-05T17:08:34.929Z,8.17
2019-01-05T17:11:04.031Z,13.83
2019-01-05T17:13:37.361Z,14.27
2019-01-05T17:16:06.526Z,10.17
2019-01-05T17:18:41.573Z,13.37
2019-01-05T17:21:12.563Z,12.20
2019-01-05T17:23:47.410Z,9.83
2019-01-05T17:26:21.412Z,11.93
2019-01-05T17:28:56.121Z,11.00
2019-01-05T17:34:10.247Z,8.10
2019-01-05T17:36:42.119Z,6.03
2019-01-05T17:39:16.966Z,7.63
2019-01-05T17:41:46.827Z,10.23
2019-01-05T17:44:15.908Z,11.93
2019-01-05T17:46:50.536Z,10.73
2019-01-05T17:49:20.485Z,11.87
2019-01-05T17:51:54.515Z,7.77
2019-01-05T17:54:29.377Z,17.23
2019-01-05T17:57:03.474Z,7.07
2019-01-05T18:02:17.933Z,6.80
2019-01-05T18:04:47.926Z,9.57
2019-01-05T18:07:20.973Z,6.13
2019-01-05T18:09:56.075Z,9.43
2019-01-05T18:12:27.975Z,21.03
2019-01-05T18:15:02.664Z,14.20
2019-01-05T18:17:32.548Z,19.27
2019-01-05T18:20:04.541Z,31.13
2019-01-05T18:22:33.598Z,16.27
2019-01-05T18:25:02.663Z,14.70
2019-01-05T18:27:31.698Z,11.40
2019-01-05T18:30:01.657Z,12.27
2019-01-05T18:32:30.706Z,7.33
2019-01-05T18:35:01.676Z,5.23
2019-01-05T18:37:31.744Z,5.97
2019-01-05T18:40:03.406Z,7.37
2019-01-05T18:42:35.363Z,6.03
2019-01-05T18:45:10.312Z,8.23
2019-01-05T18:47:39.398Z,8.30
2019-01-05T18:50:09.367Z,8.20
2019-01-05T18:52:43.281Z,5.90
2019-01-05T18:55:17.968Z,9.10
2019-01-05T18:57:47.048Z,9.57
2019-01-05T19:00:21.719Z,9.77
2019-01-05T19:05:48.392Z,11.13
2019-01-05T19:08:23.127Z,10.33
2019-01-05T19:10:57.722Z,7.87
2019-01-05T19:13:33.481Z,17.43
2019-01-05T19:16:02.533Z,17.93
2019-01-05T19:18:31.590Z,27.57
2019-01-05T19:21:02.639Z,35.63
2019-01-05T19:23:32.482Z,19.10
2019-01-05T19:26:02.505Z,62.20
2019-01-05T19:28:32.513Z,12.30
2019-01-05T19:33:50.049Z,24.80
2019-01-05T19:36:24.742Z,8.33
2019-01-05T19:38:58.566Z,10.63
2019-01-05T19:41:29.423Z,81.13
2019-01-05T19:43:58.514Z,71.40
2019-01-05T19:46:31.471Z,48.90
2019-01-05T19:49:06.047Z,39.10
2019-01-05T19:51:36.085Z,10.30
2019-01-05T19:54:05.132Z,16.77
2019-01-05T19:56:34.187Z,13.40
2019-01-05T19:59:08.973Z,19.20
2019-01-05T20:01:38.039Z,13.27
2019-01-05T20:04:11.910Z,3.57
2019-01-05T20:06:42.888Z,12.83
2019-01-05T20:09:11.932Z,13.50
2019-01-05T20:11:46.619Z,6.57
2019-01-05T20:14:21.237Z,5.97
2019-01-05T20:16:52.279Z,7.50
2019-01-05T20:19:26.802Z,6.37
2019-01-05T20:21:56.829Z,5.83
2019-01-05T20:24:27.685Z,3.70
2019-01-05T20:29:40.616Z,23.63
2019-01-05T20:32:15.271Z,7.47
2019-01-05T20:34:46.208Z,3.93
2019-01-05T20:37:21.018Z,2.97
2019-01-05T20:39:50.111Z,6.57
2019-01-05T20:42:23.040Z,5.80
2019-01-05T20:44:53.074Z,5.10
2019-01-05T20:47:27.156Z,5.00
2019-01-05T20:49:58.186Z,4.10
2019-01-05T20:52:28.134Z,3.33
2019-01-05T20:54:59.219Z,3.30
2019-01-05T20:57:33.133Z,18.07
2019-01-05T21:00:07.903Z,21.83
2019-01-05T21:02:42.814Z,6.93
2019-01-05T21:05:17.687Z,13.53
2019-01-05T21:07:50.756Z,12.57
2019-01-05T21:10:19.843Z,14.27
2019-01-05T21:12:49.752Z,8.73
2019-01-05T21:15:24.851Z,8.67
2019-01-05T21:17:52.856Z,5.67
2019-01-05T21:20:23.849Z,3.23
2019-01-05T21:22:58.668Z,9.53
2019-01-05T21:25:33.275Z,10.23
2019-01-05T21:28:03.197Z,11.60
2019-01-05T21:30:37.798Z,4.03
2019-01-05T21:36:05.083Z,11.80
2019-01-05T21:38:39.188Z,12.97
2019-01-05T21:41:13.763Z,18.73
2019-01-05T21:43:44.814Z,13.20
2019-01-05T21:46:13.923Z,6.90
2019-01-05T21:48:48.440Z,3.67
2019-01-05T21:51:19.977Z,5.50
2019-01-05T21:56:33.142Z,6.03
2019-01-05T21:59:04.079Z,7.07
2019-01-05T22:01:34.028Z,5.77
2019-01-05T22:04:03.081Z,7.97
2019-01-05T22:06:33.022Z,8.07
2019-01-05T22:09:02.056Z,9.10
2019-01-05T22:11:33.054Z,7.27
2019-01-05T22:14:06.152Z,7.20
2019-01-05T22:16:38.014Z,6.37
2019-01-05T22:19:10.957Z,15.17
2019-01-05T22:21:42.819Z,10.73
2019-01-05T22:24:13.859Z,7.47
2019-01-05T22:26:42.908Z,9.60
2019-01-05T22:29:17.947Z,16.50
2019-01-05T22:31:52.429Z,6.97
2019-01-05T22:34:42.609Z,4.80
2019-01-05T22:37:11.635Z,3.83
2019-01-05T22:39:46.326Z,3.90
2019-01-05T22:42:16.107Z,7.50
2019-01-05T22:44:48.214Z,4.40
2019-01-05T22:47:17.259Z,8.27
2019-01-05T22:49:46.302Z,7.90
2019-01-05T22:52:17.328Z,3.20
2019-01-05T22:54:51.855Z,4.90
2019-01-05T22:57:23.735Z,7.10
2019-01-05T22:59:52.782Z,3.07
2019-01-05T23:02:26.938Z,4.30
2019-01-05T23:04:55.988Z,7.70
2019-01-05T23:07:26.891Z,15.87
2019-01-05T23:09:59.876Z,8.30
2019-01-05T23:12:31.880Z,6.57
2019-01-05T23:15:00.953Z,25.73
2019-01-05T23:17:31.737Z,12.43
2019-01-05T23:20:06.351Z,7.10
2019-01-05T23:22:37.221Z,10.17
2019-01-05T23:25:07.106Z,5.73
2019-01-05T23:27:38.946Z,5.40
2019-01-05T23:30:09.847Z,5.70
2019-01-05T23:32:38.874Z,5.30
2019-01-05T23:35:08.840Z,5.37
2019-01-05T23:37:42.915Z,6.20
2019-01-05T23:40:17.529Z,5.43
2019-01-05T23:42:52.054Z,4.37
2019-01-05T23:45:27.469Z,4.07
2019-01-05T23:47:57.469Z,4.87
2019-01-05T23:50:28.463Z,3.63
2019-01-05T23:53:00.561Z,3.97
2019-01-05T23:55:29.598Z,4.10
2019-01-05T23:58:00.360Z,4.97
